Time;durP1;ratioP1;P1;durP2;ratioP2;P2;SDS_P1;SDS_P2;PMS_P1;PMS_P2;Temp;Humidity;BMP_temperature;BMP_pressure;BME280_temperature;BME280_humidity;BME280_pressure;Samples;Min_cycle;Max_cycle;Signal;HPM_P1;HPM_P2
2023/12/12 00:02:01;;;;;;;33.50;20.80;;;;;;;5.67;100.00;99064.94;105618;1254;99988;-77
2023/12/12 00:04:46;;;;;;;34.30;20.00;;;;;;;5.67;100.00;99064.73;105647;1259;100490;-76
2023/12/12 00:07:32;;;;;;;30.90;19.60;;;;;;;5.67;100.00;99066.00;105691;1258;97812;-77
2023/12/12 00:10:18;;;;;;;32.80;20.30;;;;;;;5.66;100.00;99072.98;105459;1266;96649;-76
2023/12/12 00:13:04;;;;;;;30.10;19.30;;;;;;;5.67;100.00;99073.67;105425;1258;97275;-78
2023/12/12 00:15:49;;;;;;;35.40;20.60;;;;;;;5.68;100.00;99074.42;105577;1254;100079;-78
2023/12/12 00:18:37;;;;;;;37.70;21.90;;;;;;;5.68;100.00;99070.27;105624;1254;100437;-78
2023/12/12 00:21:23;;;;;;;33.10;20.00;;;;;;;5.69;100.00;99067.16;105675;1257;97725;-79
2023/12/12 00:24:08;;;;;;;36.30;21.10;;;;;;;5.69;100.00;99071.77;105444;1266;97187;-76
2023/12/12 00:26:54;;;;;;;30.90;19.30;;;;;;;5.70;100.00;99074.19;105598;1257;97907;-76
2023/12/12 00:29:40;;;;;;;34.20;19.40;;;;;;;5.71;100.00;99077.84;105693;1258;101478;-77
2023/12/12 00:32:26;;;;;;;32.40;20.00;;;;;;;5.72;100.00;99084.46;105670;1257;100390;-77
2023/12/12 00:35:12;;;;;;;30.30;18.20;;;;;;;5.73;100.00;99084.38;105573;1255;99563;-77
2023/12/12 00:37:58;;;;;;;31.30;18.90;;;;;;;5.74;100.00;99091.39;105627;1260;96710;-78
2023/12/12 00:40:53;;;;;;;31.40;19.80;;;;;;;5.73;100.00;99094.64;105530;1257;97061;-77
2023/12/12 00:43:41;;;;;;;33.40;18.30;;;;;;;5.73;100.00;99095.06;105637;1257;99989;-78
2023/12/12 00:46:26;;;;;;;28.50;18.00;;;;;;;5.70;100.00;99095.90;105353;1255;99206;-75
2023/12/12 00:49:12;;;;;;;28.20;18.40;;;;;;;5.69;100.00;99094.67;105407;1258;97709;-78
2023/12/12 00:51:57;;;;;;;28.10;19.90;;;;;;;5.68;100.00;99097.02;105614;1260;97047;-78
2023/12/12 00:54:43;;;;;;;29.60;19.20;;;;;;;5.67;100.00;99100.77;105614;1260;97231;-78
2023/12/12 00:57:29;;;;;;;31.80;20.60;;;;;;;5.67;100.00;99105.15;105645;1254;100030;-78
2023/12/12 01:00:15;;;;;;;29.90;20.30;;;;;;;5.66;100.00;99106.29;105827;1257;100422;-79
2023/12/12 01:03:00;;;;;;;30.80;19.90;;;;;;;5.66;100.00;99105.64;105742;1254;98520;-76
2023/12/12 01:05:46;;;;;;;31.40;19.10;;;;;;;5.68;100.00;99104.91;105589;1258;96702;-76
2023/12/12 01:08:33;;;;;;;35.40;21.30;;;;;;;5.68;100.00;99104.84;105450;1255;97138;-76
2023/12/12 01:11:18;;;;;;;31.10;19.70;;;;;;;5.72;100.00;99109.89;105632;1258;100907;-77
2023/12/12 01:14:04;;;;;;;33.10;20.90;;;;;;;5.73;100.00;99109.53;105550;1258;99059;-77
2023/12/12 01:16:49;;;;;;;28.30;19.70;;;;;;;5.73;100.00;99112.88;105510;1260;97928;-78
2023/12/12 01:19:35;;;;;;;31.70;20.10;;;;;;;5.75;100.00;99114.82;105656;1257;96741;-77
2023/12/12 01:22:20;;;;;;;32.60;19.30;;;;;;;5.76;100.00;99121.69;105501;1254;97814;-76
2023/12/12 01:25:07;;;;;;;32.00;20.30;;;;;;;5.77;100.00;99126.52;105621;1264;100008;-75
2023/12/12 01:27:52;;;;;;;37.50;22.20;;;;;;;5.81;100.00;99128.19;105590;1254;100417;-77
2023/12/12 01:30:38;;;;;;;32.70;20.80;;;;;;;5.82;100.00;99124.62;105694;1254;97709;-77
2023/12/12 01:33:23;;;;;;;27.80;19.20;;;;;;;5.86;100.00;99122.67;105547;1254;96548;-76
2023/12/12 01:36:10;;;;;;;30.30;19.80;;;;;;;5.88;100.00;99127.09;105591;1257;97054;-76
2023/12/12 01:38:55;;;;;;;30.00;19.90;;;;;;;5.90;100.00;99129.84;105492;1254;101999;-77
2023/12/12 01:41:41;;;;;;;30.90;19.90;;;;;;;5.93;100.00;99132.29;105605;1258;99047;-77
2023/12/12 01:44:26;;;;;;;30.80;19.00;;;;;;;5.97;100.00;99136.77;105562;1254;98491;-75
2023/12/12 01:47:12;;;;;;;35.60;20.40;;;;;;;5.98;100.00;99139.82;105573;1257;96582;-77
2023/12/12 01:49:58;;;;;;;30.70;19.50;;;;;;;6.00;100.00;99144.33;105462;1254;97134;-78
2023/12/12 01:52:44;;;;;;;33.50;20.10;;;;;;;6.02;100.00;99145.38;105640;1257;100003;-76
2023/12/12 01:55:31;;;;;;;30.60;20.30;;;;;;;6.05;100.00;99145.14;105626;1254;99117;-76
2023/12/12 01:58:18;;;;;;;32.70;20.50;;;;;;;6.06;100.00;99146.95;105499;1269;97687;-75
2023/12/12 02:01:05;;;;;;;34.00;20.50;;;;;;;6.08;100.00;99153.76;105501;1254;97218;-76
2023/12/12 02:03:52;;;;;;;29.30;18.40;;;;;;;6.08;100.00;99154.69;105672;1269;97126;-78
2023/12/12 02:06:42;;;;;;;32.00;19.80;;;;;;;6.07;100.00;99153.36;106421;1255;101424;-77
2023/12/12 02:09:27;;;;;;;30.00;19.20;;;;;;;6.09;100.00;99162.30;105638;1254;100894;-77
2023/12/12 02:12:13;;;;;;;26.20;18.80;;;;;;;6.10;100.00;99167.10;105524;1257;99042;-78
2023/12/12 02:14:58;;;;;;;29.60;18.50;;;;;;;6.12;100.00;99166.79;105660;1254;96632;-76
2023/12/12 02:17:44;;;;;;;29.40;19.60;;;;;;;6.13;100.00;99170.35;105711;1257;97139;-79
2023/12/12 02:20:30;;;;;;;29.60;19.90;;;;;;;6.14;100.00;99171.92;105669;1255;99995;-77
2023/12/12 02:23:15;;;;;;;30.70;19.90;;;;;;;6.15;100.00;99173.68;105721;1254;99117;-77
2023/12/12 02:26:03;;;;;;;30.80;19.10;;;;;;;6.15;100.00;99174.83;105672;1260;97790;-77
2023/12/12 02:28:48;;;;;;;31.70;19.20;;;;;;;6.16;100.00;99177.62;105533;1254;96540;-76
2023/12/12 02:31:34;;;;;;;30.70;19.10;;;;;;;6.14;100.00;99176.87;105458;1261;97146;-76
2023/12/12 02:34:20;;;;;;;32.30;20.40;;;;;;;6.15;100.00;99178.05;105508;1254;100069;-77
2023/12/12 02:37:06;;;;;;;30.10;20.30;;;;;;;6.15;100.00;99177.85;105476;1256;99176;-76
2023/12/12 02:39:51;;;;;;;32.70;20.60;;;;;;;6.14;100.00;99179.73;105555;1254;97792;-76
2023/12/12 02:42:43;;;;;;;32.90;21.80;;;;;;;6.13;100.00;99177.73;105516;1260;96537;-77
2023/12/12 02:45:28;;;;;;;29.30;19.80;;;;;;;6.14;100.00;99179.73;105741;1254;97679;-78
2023/12/12 02:48:15;;;;;;;33.70;22.40;;;;;;;6.15;100.00;99179.66;105660;1257;100039;-78
2023/12/12 02:51:01;;;;;;;34.40;20.60;;;;;;;6.15;100.00;99180.84;105770;1258;100347;-76
2023/12/12 02:53:47;;;;;;;37.10;21.20;;;;;;;6.14;100.00;99184.02;105592;1253;97809;-77
2023/12/12 02:56:33;;;;;;;31.70;21.40;;;;;;;6.15;100.00;99185.18;105495;1254;96635;-78
2023/12/12 02:59:18;;;;;;;33.10;21.40;;;;;;;6.17;100.00;99188.55;105482;1255;97106;-76
2023/12/12 03:02:04;;;;;;;37.50;21.30;;;;;;;6.19;100.00;99187.30;105538;1256;100148;-77
2023/12/12 03:04:49;;;;;;;36.60;19.70;;;;;;;6.21;100.00;99191.98;105653;1254;101284;-78
2023/12/12 03:07:35;;;;;;;34.60;20.30;;;;;;;6.21;100.00;99194.43;105718;1254;99007;-78
2023/12/12 03:10:20;;;;;;;37.10;21.20;;;;;;;6.21;100.00;99197.83;105585;1257;97126;-76
2023/12/12 03:13:06;;;;;;;38.60;21.60;;;;;;;6.23;100.00;99198.65;105529;1256;97793;-77
2023/12/12 03:15:51;;;;;;;36.20;21.90;;;;;;;6.23;100.00;99198.09;105661;1260;100118;-77
2023/12/12 03:18:37;;;;;;;37.80;21.90;;;;;;;6.24;100.00;99200.63;105741;1255;100066;-78
2023/12/12 03:21:22;;;;;;;44.00;24.60;;;;;;;6.24;100.00;99202.64;105609;1254;97703;-77
2023/12/12 03:24:08;;;;;;;36.80;24.30;;;;;;;6.24;100.00;99202.63;105673;1257;96613;-76
2023/12/12 03:26:53;;;;;;;45.50;25.10;;;;;;;6.23;100.00;99203.60;105802;1254;96644;-76
2023/12/12 03:29:39;;;;;;;39.50;23.20;;;;;;;6.23;100.00;99206.52;105654;1254;100068;-76
2023/12/12 03:32:24;;;;;;;40.20;23.60;;;;;;;6.22;100.00;99208.41;105542;1257;100573;-77
2023/12/12 03:35:10;;;;;;;36.00;21.60;;;;;;;6.21;100.00;99210.79;105670;1254;97779;-77
2023/12/12 03:37:56;;;;;;;39.20;22.60;;;;;;;6.20;100.00;99211.63;105618;1260;96702;-77
2023/12/12 03:40:41;;;;;;;37.10;22.50;;;;;;;6.19;100.00;99214.45;105534;1254;97117;-76
2023/12/12 03:43:27;;;;;;;34.70;21.10;;;;;;;6.19;100.00;99219.16;105438;1261;100743;-77
2023/12/12 03:46:13;;;;;;;44.60;25.20;;;;;;;6.18;100.00;99219.64;105191;1257;99806;-77
2023/12/12 03:48:59;;;;;;;43.70;25.50;;;;;;;6.17;100.00;99220.82;105398;1257;99014;-77
2023/12/12 03:51:45;;;;;;;48.30;27.00;;;;;;;6.17;100.00;99225.94;105763;1257;97247;-77
2023/12/12 03:54:32;;;;;;;50.60;26.00;;;;;;;6.18;100.00;99234.57;105693;1260;97145;-77
2023/12/12 03:57:17;;;;;;;52.10;27.70;;;;;;;6.17;100.00;99234.88;105612;1260;100018;-77
2023/12/12 04:00:06;;;;;;;48.40;27.30;;;;;;;6.16;100.00;99232.91;105615;1257;99113;-76
2023/12/12 04:02:57;;;;;;;61.20;30.10;;;;;;;6.15;100.00;99232.98;105741;1257;97887;-78
2023/12/12 04:05:43;;;;;;;59.80;29.80;;;;;;;6.15;100.00;99235.61;105729;1257;97490;-77
2023/12/12 04:08:28;;;;;;;61.80;30.30;;;;;;;6.17;100.00;99236.85;105599;1256;96506;-78
2023/12/12 04:11:14;;;;;;;54.70;29.70;;;;;;;6.16;100.00;99239.58;105696;1257;101362;-76
2023/12/12 04:13:59;;;;;;;65.70;32.60;;;;;;;6.15;100.00;99237.45;105600;1257;99177;-77
2023/12/12 04:16:46;;;;;;;64.70;33.00;;;;;;;6.13;100.00;99240.17;105798;1253;99313;-77
2023/12/12 04:19:31;;;;;;;61.70;32.00;;;;;;;6.11;100.00;99245.35;105720;1254;96607;-76
2023/12/12 04:22:17;;;;;;;61.50;31.80;;;;;;;6.10;100.00;99248.27;105781;1253;98225;-76
2023/12/12 04:25:03;;;;;;;66.60;31.80;;;;;;;6.10;100.00;99245.73;105677;1254;100725;-78
2023/12/12 04:27:49;;;;;;;63.60;32.20;;;;;;;6.08;100.00;99251.41;105885;1257;99069;-76
2023/12/12 04:30:34;;;;;;;72.60;34.30;;;;;;;6.07;100.00;99257.57;105635;1255;99075;-76
2023/12/12 04:33:20;;;;;;;61.10;32.20;;;;;;;6.06;100.00;99259.33;105756;1254;97366;-75
2023/12/12 04:36:06;;;;;;;62.60;31.80;;;;;;;6.06;100.00;99260.19;105717;1253;97039;-77
2023/12/12 04:38:51;;;;;;;66.40;32.10;;;;;;;6.05;100.00;99264.19;105749;1254;101021;-78
2023/12/12 04:41:39;;;;;;;74.30;32.50;;;;;;;6.05;100.00;99262.06;105484;1260;100577;-77
2023/12/12 04:44:25;;;;;;;60.20;28.50;;;;;;;6.04;100.00;99261.06;105546;1252;97745;-76
2023/12/12 04:47:11;;;;;;;65.80;31.20;;;;;;;6.03;100.00;99267.33;107469;1254;97845;-78
2023/12/12 04:49:56;;;;;;;58.10;30.70;;;;;;;6.02;100.00;99264.37;105698;1257;97007;-77
2023/12/12 04:52:42;;;;;;;70.80;32.30;;;;;;;6.02;100.00;99267.66;105592;1254;101888;-78
2023/12/12 04:55:27;;;;;;;56.90;29.60;;;;;;;6.01;100.00;99271.79;105634;1257;100456;-78
2023/12/12 04:58:13;;;;;;;67.00;30.50;;;;;;;6.01;100.00;99271.82;105594;1257;99045;-78
2023/12/12 05:00:58;;;;;;;67.10;30.90;;;;;;;5.99;100.00;99276.71;105642;1258;96620;-76
2023/12/12 05:03:44;;;;;;;67.80;29.90;;;;;;;5.96;100.00;99279.95;105695;1255;96500;-77
2023/12/12 05:06:30;;;;;;;64.50;31.70;;;;;;;5.95;100.00;99282.03;105569;1260;100116;-76
2023/12/12 05:09:17;;;;;;;61.30;29.50;;;;;;;5.92;100.00;99284.62;105621;1254;99773;-78
2023/12/12 05:12:02;;;;;;;61.50;29.60;;;;;;;5.90;100.00;99284.23;105594;1255;97879;-76
2023/12/12 05:14:48;;;;;;;69.80;33.70;;;;;;;5.89;100.00;99284.43;105663;1258;96579;-77
2023/12/12 05:17:34;;;;;;;69.40;32.90;;;;;;;5.89;100.00;99285.90;105726;1257;96613;-77
2023/12/12 05:20:19;;;;;;;72.40;32.80;;;;;;;5.89;100.00;99288.71;105765;1257;100039;-77
2023/12/12 05:23:05;;;;;;;68.60;31.60;;;;;;;5.90;100.00;99295.02;105630;1257;99170;-78
2023/12/12 05:25:50;;;;;;;78.50;33.80;;;;;;;5.91;100.00;99295.64;105538;1254;99131;-76
2023/12/12 05:28:36;;;;;;;70.40;33.70;;;;;;;5.92;100.00;99304.36;105637;1258;97222;-77
2023/12/12 05:31:24;;;;;;;77.20;35.60;;;;;;;5.92;100.00;99307.30;105598;1254;97184;-78
2023/12/12 05:34:09;;;;;;;70.20;32.20;;;;;;;5.93;100.00;99313.75;105631;1260;101258;-77
2023/12/12 05:36:55;;;;;;;74.30;34.60;;;;;;;5.94;100.00;99315.94;105661;1258;99343;-76
2023/12/12 05:39:40;;;;;;;75.90;33.80;;;;;;;5.96;100.00;99316.02;105593;1254;98511;-76
2023/12/12 05:42:26;;;;;;;71.00;32.70;;;;;;;5.99;100.00;99321.94;105618;1254;97248;-76
2023/12/12 05:45:12;;;;;;;69.20;32.50;;;;;;;5.99;100.00;99327.77;105643;1257;96637;-77
2023/12/12 05:47:57;;;;;;;74.20;33.50;;;;;;;5.99;100.00;99331.03;105629;1257;100248;-77
2023/12/12 05:50:43;;;;;;;70.20;32.40;;;;;;;6.02;100.00;99330.92;105731;1254;100774;-77
2023/12/12 05:53:28;;;;;;;70.80;31.10;;;;;;;6.03;100.00;99335.52;105645;1260;97757;-76
2023/12/12 05:56:14;;;;;;;66.00;33.60;;;;;;;6.04;100.00;99341.34;105695;1254;97763;-76
2023/12/12 05:59:00;;;;;;;74.00;34.30;;;;;;;6.05;100.00;99343.80;105685;1253;97140;-78
2023/12/12 06:01:45;;;;;;;72.60;33.60;;;;;;;6.06;100.00;99350.93;105709;1257;100776;-76
2023/12/12 06:04:31;;;;;;;62.30;30.10;;;;;;;6.07;100.00;99355.43;105634;1254;99232;-77
2023/12/12 06:07:17;;;;;;;66.30;30.70;;;;;;;6.08;100.00;99356.92;105694;1255;99034;-78
2023/12/12 06:10:05;;;;;;;70.80;31.60;;;;;;;6.08;100.00;99360.56;105513;1258;96777;-77
2023/12/12 06:12:50;;;;;;;64.70;31.30;;;;;;;6.08;100.00;99362.86;105976;1254;97903;-75
2023/12/12 06:15:35;;;;;;;60.90;29.80;;;;;;;6.08;100.00;99360.56;105538;1257;100276;-76
2023/12/12 06:18:21;;;;;;;61.90;31.00;;;;;;;6.09;100.00;99366.34;105516;1254;99314;-78
2023/12/12 06:21:07;;;;;;;63.70;30.10;;;;;;;6.10;100.00;99375.09;105566;1255;97762;-77
2023/12/12 06:23:52;;;;;;;63.80;31.30;;;;;;;6.10;100.00;99379.28;105689;1254;96601;-78
2023/12/12 06:26:38;;;;;;;61.70;31.60;;;;;;;6.10;100.00;99381.73;105782;1255;98289;-77
2023/12/12 06:29:24;;;;;;;66.60;29.90;;;;;;;6.12;100.00;99382.91;106144;1258;101227;-78
2023/12/12 06:32:10;;;;;;;61.10;29.50;;;;;;;6.14;100.00;99388.20;105568;1258;100412;-77
2023/12/12 06:34:56;;;;;;;61.90;27.70;;;;;;;6.16;100.00;99390.83;105649;1257;98772;-77
2023/12/12 06:37:42;;;;;;;62.10;28.30;;;;;;;6.14;100.00;99392.09;105590;1258;97119;-76
2023/12/12 06:40:30;;;;;;;62.00;29.70;;;;;;;6.12;100.00;99393.70;105614;1254;96605;-77
2023/12/12 06:43:16;;;;;;;62.40;30.00;;;;;;;6.12;100.00;99398.73;105673;1254;100914;-77
2023/12/12 06:46:02;;;;;;;55.90;28.30;;;;;;;6.13;100.00;99404.59;105649;1258;99153;-77
2023/12/12 06:48:47;;;;;;;66.20;30.40;;;;;;;6.15;100.00;99403.70;105650;1258;98979;-78
2023/12/12 06:51:33;;;;;;;59.60;29.50;;;;;;;6.14;100.00;99406.27;105518;1257;96641;-77
2023/12/12 06:54:19;;;;;;;55.80;30.00;;;;;;;6.14;100.00;99407.73;105463;1257;96610;-78
2023/12/12 06:57:05;;;;;;;69.40;30.60;;;;;;;6.13;100.00;99408.19;105452;1253;100785;-78
2023/12/12 06:59:50;;;;;;;64.70;29.80;;;;;;;6.11;100.00;99413.70;105487;1258;100321;-77
2023/12/12 07:02:36;;;;;;;65.10;30.90;;;;;;;6.12;100.00;99415.41;105514;1257;98964;-76
2023/12/12 07:05:22;;;;;;;67.40;30.70;;;;;;;6.12;100.00;99417.70;105500;1257;96620;-77
2023/12/12 07:08:08;;;;;;;58.70;29.40;;;;;;;6.11;100.00;99420.64;105600;1254;97198;-78
2023/12/12 07:10:53;;;;;;;55.60;27.10;;;;;;;6.11;100.00;99426.90;105616;1253;100887;-76
2023/12/12 07:13:39;;;;;;;63.50;29.10;;;;;;;6.11;100.00;99427.19;105623;1257;99369;-78
2023/12/12 07:16:24;;;;;;;60.20;27.80;;;;;;;6.13;100.00;99425.31;105635;1257;99550;-75
2023/12/12 07:19:10;;;;;;;62.70;28.40;;;;;;;6.13;100.00;99427.83;105662;1253;98084;-77
2023/12/12 07:21:55;;;;;;;60.20;27.80;;;;;;;6.13;100.00;99429.82;105761;1254;96542;-78
2023/12/12 07:24:41;;;;;;;62.00;27.30;;;;;;;6.13;100.00;99429.86;105614;1257;100003;-77
2023/12/12 07:27:27;;;;;;;60.90;27.40;;;;;;;6.13;100.00;99433.02;105743;1258;99130;-75
2023/12/12 07:30:12;;;;;;;51.20;25.00;;;;;;;6.14;100.00;99430.61;105672;1258;97768;-77
2023/12/12 07:32:58;;;;;;;50.10;25.80;;;;;;;6.13;100.00;99440.05;105667;1254;97977;-77
2023/12/12 07:35:44;;;;;;;47.50;25.00;;;;;;;6.13;100.00;99447.70;105850;1253;96522;-77
2023/12/12 07:38:30;;;;;;;49.20;25.20;;;;;;;6.12;100.00;99451.33;105786;1254;101041;-77
2023/12/12 07:41:15;;;;;;;50.70;26.20;;;;;;;6.12;100.00;99452.73;105822;1257;100391;-76
2023/12/12 07:44:02;;;;;;;45.10;23.20;;;;;;;6.13;100.00;99456.38;105770;1253;97731;-76
2023/12/12 07:46:48;;;;;;;49.50;24.70;;;;;;;6.13;100.00;99462.05;105627;1257;96725;-77
2023/12/12 07:49:33;;;;;;;44.40;22.30;;;;;;;6.13;100.00;99462.09;105846;1253;98312;-76
2023/12/12 07:52:19;;;;;;;41.90;21.60;;;;;;;6.13;100.00;99463.69;105696;1257;101102;-77
2023/12/12 07:55:05;;;;;;;53.30;23.20;;;;;;;6.12;100.00;99470.39;105763;1254;99149;-77
2023/12/12 07:57:50;;;;;;;49.80;20.10;;;;;;;6.10;100.00;99473.23;105662;1254;99049;-77
2023/12/12 08:00:36;;;;;;;37.80;21.40;;;;;;;6.08;100.00;99474.79;105661;1257;96559;-77
2023/12/12 08:03:21;;;;;;;42.40;22.40;;;;;;;6.07;100.00;99478.21;105819;1254;97113;-78
2023/12/12 08:06:08;;;;;;;39.80;20.00;;;;;;;6.05;100.00;99483.55;105659;1254;100221;-77
2023/12/12 08:08:53;;;;;;;46.50;21.50;;;;;;;6.04;100.00;99487.86;105752;1254;99169;-77
2023/12/12 08:11:39;;;;;;;43.40;20.70;;;;;;;6.03;100.00;99494.35;105776;1254;98990;-78
2023/12/12 08:14:26;;;;;;;41.60;21.50;;;;;;;6.03;100.00;99498.66;105625;1254;97146;-77
2023/12/12 08:17:11;;;;;;;33.30;18.30;;;;;;;6.03;100.00;99502.41;105557;1254;98622;-76
2023/12/12 08:19:57;;;;;;;30.70;17.90;;;;;;;5.98;100.00;99502.67;105514;1254;100847;-76
2023/12/12 08:22:43;;;;;;;32.40;18.20;;;;;;;5.93;100.00;99501.70;105509;1255;100334;-77
2023/12/12 08:25:28;;;;;;;34.70;19.50;;;;;;;5.90;100.00;99505.46;105536;1254;98989;-77
2023/12/12 08:28:14;;;;;;;28.80;16.40;;;;;;;5.88;100.00;99509.44;105623;1253;96610;-77
2023/12/12 08:31:00;;;;;;;31.30;17.40;;;;;;;5.86;100.00;99515.34;105783;1253;96600;-76
2023/12/12 08:33:46;;;;;;;31.90;17.70;;;;;;;5.84;100.00;99518.41;105611;1257;101478;-78
2023/12/12 08:36:32;;;;;;;25.70;16.00;;;;;;;5.83;100.00;99525.55;105615;1257;99194;-78
2023/12/12 08:39:17;;;;;;;26.70;16.10;;;;;;;5.82;100.00;99525.91;105568;1258;97745;-80
2023/12/12 08:42:03;;;;;;;26.60;16.10;;;;;;;5.79;100.00;99528.17;105613;1254;97079;-78
2023/12/12 08:44:49;;;;;;;23.40;15.40;;;;;;;5.77;100.00;99530.23;105719;1255;97082;-78
2023/12/12 08:47:36;;;;;;;21.40;14.10;;;;;;;5.75;100.00;99534.97;105629;1254;100014;-78
2023/12/12 08:50:22;;;;;;;24.40;14.40;;;;;;;5.70;100.00;99540.09;105516;1258;119833;-78
2023/12/12 08:53:08;;;;;;;20.80;14.30;;;;;;;5.65;100.00;99541.64;105643;1256;97877;-76
2023/12/12 08:55:55;;;;;;;21.50;14.00;;;;;;;5.60;100.00;99545.77;105640;1254;97846;-78
2023/12/12 08:58:40;;;;;;;21.00;13.60;;;;;;;5.56;100.00;99544.08;105817;1258;99340;-78
2023/12/12 09:01:26;;;;;;;19.60;13.50;;;;;;;5.53;100.00;99550.45;105608;1252;100050;-76
2023/12/12 09:04:14;;;;;;;22.30;14.30;;;;;;;5.50;100.00;99561.23;105590;1254;100304;-76
2023/12/12 09:06:59;;;;;;;21.00;13.60;;;;;;;5.48;100.00;99571.04;105519;1252;100079;-77
2023/12/12 09:09:45;;;;;;;21.00;13.20;;;;;;;5.45;100.00;99580.52;105601;1257;96603;-78
2023/12/12 09:12:31;;;;;;;22.70;13.90;;;;;;;5.41;100.00;99585.71;105561;1257;96545;-79
2023/12/12 09:15:17;;;;;;;21.90;13.90;;;;;;;5.36;100.00;99588.77;105440;1255;100019;-77
2023/12/12 09:18:02;;;;;;;21.00;12.70;;;;;;;5.33;100.00;99594.20;105593;1257;100332;-77
2023/12/12 09:20:48;;;;;;;20.50;13.30;;;;;;;5.29;100.00;99593.06;105560;1254;97778;-76
2023/12/12 09:23:34;;;;;;;19.90;12.40;;;;;;;5.25;100.00;99599.10;105675;1252;96597;-78
2023/12/12 09:26:20;;;;;;;21.60;12.60;;;;;;;5.21;100.00;99605.73;105694;1259;96504;-78
2023/12/12 09:29:06;;;;;;;17.80;12.60;;;;;;;5.17;100.00;99607.42;105730;1257;101277;-79
2023/12/12 09:31:51;;;;;;;18.30;11.10;;;;;;;5.10;100.00;99611.50;105491;1259;100321;-76
2023/12/12 09:34:37;;;;;;;19.00;12.20;;;;;;;5.02;100.00;99617.11;105459;1258;97852;-76
2023/12/12 09:37:23;;;;;;;16.30;10.80;;;;;;;4.92;100.00;99619.16;105460;1258;97896;-78
2023/12/12 09:40:12;;;;;;;21.60;13.90;;;;;;;4.85;100.00;99625.50;105364;1257;97140;-78
2023/12/12 09:43:01;;;;;;;21.10;13.10;;;;;;;4.78;100.00;99628.79;105393;1254;100027;-76
2023/12/12 09:45:47;;;;;;;18.80;12.30;;;;;;;4.76;100.00;99628.02;105655;1257;99132;-78
2023/12/12 09:48:33;;;;;;;23.70;14.40;;;;;;;4.75;100.00;99626.48;105530;1252;98476;-79
2023/12/12 09:51:20;;;;;;;24.30;13.30;;;;;;;4.78;100.00;99631.80;105486;1256;96665;-77
2023/12/12 09:54:07;;;;;;;22.70;13.60;;;;;;;4.81;100.00;99634.92;105415;1253;96544;-78
2023/12/12 09:56:54;;;;;;;19.90;12.70;;;;;;;4.84;100.00;99636.23;108445;1253;100704;-78
2023/12/12 09:59:39;;;;;;;21.30;12.30;;;;;;;4.86;100.00;99646.95;106710;1253;99228;-77
2023/12/12 10:02:33;;;;;;;24.60;13.90;;;;;;;4.85;100.00;99652.04;105434;1271;99551;-78
2023/12/12 10:05:19;;;;;;;21.70;13.10;;;;;;;4.81;100.00;99652.19;105601;1253;96598;-76
2023/12/12 10:08:05;;;;;;;23.00;14.10;;;;;;;4.77;100.00;99659.63;105622;1252;97190;-77
2023/12/12 10:10:52;;;;;;;25.50;14.60;;;;;;;4.70;100.00;99668.05;105514;1258;101022;-77
2023/12/12 10:13:53;;;;;;;27.10;14.70;;;;;;;4.63;100.00;99675.89;105407;1254;99140;-74
2023/12/12 10:16:39;;;;;;;31.50;17.00;;;;;;;4.56;100.00;99679.30;105433;1254;98995;-78
2023/12/12 10:19:25;;;;;;;29.90;15.40;;;;;;;4.54;100.00;99680.46;105526;1254;97196;-78
2023/12/12 10:22:10;;;;;;;30.80;16.10;;;;;;;4.49;100.00;99684.52;105621;1257;98460;-79
2023/12/12 10:25:09;;;;;;;34.10;17.90;;;;;;;4.47;100.00;99690.44;105693;1255;100167;-78
2023/12/12 10:27:56;;;;;;;33.20;19.10;;;;;;;4.47;100.00;99700.21;106220;1253;100568;-78
2023/12/12 10:30:42;;;;;;;34.40;19.20;;;;;;;4.44;100.00;99709.00;107815;1256;97670;-78
2023/12/12 10:33:28;;;;;;;37.90;21.50;;;;;;;4.39;100.00;99709.01;105544;1271;97438;-77
2023/12/12 10:36:13;;;;;;;38.90;21.90;;;;;;;4.36;100.00;99712.77;105578;1255;97127;-76
2023/12/12 10:39:12;;;;;;;43.20;22.30;;;;;;;4.33;100.00;99712.66;105561;1257;101759;-77
2023/12/12 10:41:58;;;;;;;36.30;19.80;;;;;;;4.33;100.00;99713.77;105511;1254;100057;-77
2023/12/12 10:44:47;;;;;;;35.40;18.90;;;;;;;4.31;100.00;99715.77;105643;1257;97700;-76
2023/12/12 10:47:34;;;;;;;34.80;18.30;;;;;;;4.27;100.00;99721.00;105745;1253;96819;-76
2023/12/12 10:50:20;;;;;;;35.10;19.90;;;;;;;4.23;100.00;99720.04;105494;1257;97178;-77
2023/12/12 10:53:07;;;;;;;34.60;18.70;;;;;;;4.23;100.00;99727.77;105846;1255;101259;-78
2023/12/12 10:55:55;;;;;;;33.20;18.30;;;;;;;4.27;100.00;99734.81;105830;1257;100004;-78
2023/12/12 10:58:43;;;;;;;29.50;17.20;;;;;;;4.27;100.00;99740.58;105691;1256;97701;-76
2023/12/12 11:01:29;;;;;;;30.50;16.60;;;;;;;4.23;100.00;99738.70;105679;1255;96681;-77
2023/12/12 11:04:17;;;;;;;31.20;17.70;;;;;;;4.24;100.00;99734.95;108498;1252;94098;-78
2023/12/12 11:07:03;;;;;;;29.70;16.10;;;;;;;4.26;100.00;99733.42;105873;1257;99962;-77
2023/12/12 11:09:48;;;;;;;34.20;18.50;;;;;;;4.30;100.00;99738.27;105487;1254;100378;-76
2023/12/12 11:12:37;;;;;;;29.60;17.00;;;;;;;4.36;100.00;99740.99;105365;1254;98603;-74
2023/12/12 11:15:26;;;;;;;28.90;16.70;;;;;;;4.40;100.00;99743.59;105419;1255;96524;-76
2023/12/12 11:18:14;;;;;;;31.50;18.30;;;;;;;4.42;100.00;99751.63;105548;1258;97119;-77
2023/12/12 11:21:00;;;;;;;30.00;16.50;;;;;;;4.44;100.00;99752.98;105543;1253;99988;-77
2023/12/12 11:23:46;;;;;;;27.50;16.00;;;;;;;4.45;100.00;99751.98;105396;1254;100377;-77
2023/12/12 11:26:32;;;;;;;31.00;16.60;;;;;;;4.46;100.00;99758.22;105605;1258;99066;-76
2023/12/12 11:29:23;;;;;;;30.10;17.70;;;;;;;4.49;100.00;99758.41;105442;1254;97300;-76
2023/12/12 11:32:13;;;;;;;32.80;17.80;;;;;;;4.54;100.00;99755.81;105754;1253;97056;-77
2023/12/12 11:34:59;;;;;;;30.40;18.00;;;;;;;4.54;100.00;99757.40;105719;1255;100759;-76
2023/12/12 11:37:44;;;;;;;34.30;18.50;;;;;;;4.53;100.00;99762.11;105576;1258;99136;-77
2023/12/12 11:40:32;;;;;;;28.70;15.70;;;;;;;4.53;100.00;99762.81;105636;1254;99066;-77
2023/12/12 11:43:23;;;;;;;25.40;16.20;;;;;;;4.54;100.00;99764.30;105735;1254;96646;-76
2023/12/12 11:46:19;;;;;;;;;;;;;;;4.55;100.00;99764.37;107196;1253;96522;-76
2023/12/12 11:49:19;;;;;;;29.70;16.60;;;;;;;4.55;100.00;99762.05;105631;1253;100021;-77
2023/12/12 11:52:04;;;;;;;32.90;18.10;;;;;;;4.56;100.00;99763.14;105795;1257;109247;-77
2023/12/12 11:54:53;;;;;;;29.00;16.90;;;;;;;4.58;100.00;99764.56;105560;1253;97750;-79
2023/12/12 11:57:40;;;;;;;26.80;16.40;;;;;;;4.60;100.00;99760.21;106276;1252;97331;-75
2023/12/12 12:00:26;;;;;;;30.60;18.20;;;;;;;4.64;100.00;99765.28;105674;1261;97055;-78
2023/12/12 12:03:15;;;;;;;33.70;18.60;;;;;;;4.68;100.00;99764.47;105688;1254;102403;-78
2023/12/12 12:06:01;;;;;;;33.00;18.60;;;;;;;4.73;100.00;99760.62;105678;1257;100431;-80
2023/12/12 12:08:47;;;;;;;30.40;19.00;;;;;;;4.76;100.00;99759.15;105694;1256;100313;-78
2023/12/12 12:11:37;;;;;;;46.40;23.70;;;;;;;4.79;100.00;99761.89;106320;1257;96572;-80
2023/12/12 12:14:23;;;;;;;80.80;47.30;;;;;;;4.82;100.00;99762.98;106452;1260;96851;-84
2023/12/12 12:17:09;;;;;;;103.30;62.80;;;;;;;4.84;100.00;99765.02;106014;1258;100062;-82
2023/12/12 12:19:57;;;;;;;61.20;38.30;;;;;;;4.84;100.00;99764.99;105984;1259;100836;-83
2023/12/12 12:22:43;;;;;;;44.70;26.70;;;;;;;4.86;100.00;99765.68;106252;1259;97836;-84
2023/12/12 12:25:29;;;;;;;40.60;23.80;;;;;;;4.87;100.00;99770.49;106052;1259;96586;-82
2023/12/12 12:28:15;;;;;;;34.70;22.10;;;;;;;4.89;100.00;99773.52;105981;1258;97109;-77
2023/12/12 12:31:02;;;;;;;37.50;22.30;;;;;;;4.90;100.00;99770.68;105502;1259;100038;-77
2023/12/12 12:33:48;;;;;;;45.40;25.00;;;;;;;4.90;100.00;99768.94;105465;1259;99064;-77